Auburn, IN (46706)

08:40 AM EDT die 30o June, anno 2015 (GMT -0400)
East Memorial Park | | Change Station
CLOSE
Current Station
Personal Weather Stations
Location: Auburn, IN
Elevation: 866 ft
Nearby Weather Stations
Active Advisory: Flood Warning

Elev 866 ft 41.36 °N, 85.06 °W | Updated 9 seconds ago

Aequaliter Nubila
Aequaliter Nubila
62.2 °F
Feels Like 62.2 °F
N
0.0
Ventus Variabilis Ventus from Magis Eurus quam Aquilo
Gusts 0.0 mph

Hodie
High -- | Low -- °F
--% Chance of Precip.
Yesterday
High -- | Low -- °F
Precip. -- in
6:09 AM 9:17 PM
Waxing Gibbous, 97% visible
Pressio 29.81 in
Visibilitas 6.0 milia passuum
Clouds Aequaliter Nubila 1500 ft
Frigus in quo Ros apparet 60 °F
Umor 92%
Rainfall in
Snow Depth Not available.
UV 0 out of 12
Pollen 1.70 out of 12
Air Quality Not available.
Flu Activity No Activity
METAR KANQ 301135Z AUTO 00000KT 6SM OVC015 16/11 A2981 RMK

More Conditions Fewer Conditions

Pressio 29.81 in
Visibilitas 6.0 milia passuum
Clouds Aequaliter Nubila 1500 ft
Frigus in quo Ros apparet 60 °F
Umor 92%
Rainfall in
Snow Depth Not available.
UV 0 out of 12
Pollen 1.70 out of 12
Air Quality Not available.
Flu Activity No Activity
METAR KANQ 301135Z AUTO 00000KT 6SM OVC015 16/11 A2981 RMK

More Conditions Fewer Conditions

10-Day Weather Forecast

×

Almanac

Astronomy

Jun. 30, 2015 Rise Set
Actual Time
Civil Twilight
Nautical Twilight
Astronomical Twilight
Moon
Length Of Visible Light
Length of Day
Tomorrow will be .
, % of the Moon is Illuminated

Today's Extremes

State Highs State Lows

Community

WunderPhotos

Upload Photos

1,833,986 photos uploaded!

WunderBlogs® & News

Nearby

Air Quality

  Air Quality AQ Index Pollutant
Not available.

Snow Depth

Station Depth Elevation

Earthquake Activity

City Distance Mag. Time & Date
Minimum magnitude displayed is 2.5.

Coastal Water Temperatures

Locus Calor

Stations

Nearby Weather Stations

Station Location Temp Frigus Venti Frigus in quo Ros apparet Umor Ventus Precip. Elev Renovata Type
                   
Flood Warning
Statement as of 10:16 PM EDT die 29o June, anno 2015

The Flood Warning continues for
the Saint Joseph River Ohio above Newville
* until further notice.
* At 9 PM Monday the stage was 14.4 feet and rising.
* Moderate flooding is occurring and moderate flooding is forecast.
* Flood stage is 12.0 feet.
* Forecast... the river will rise to a crest near 14.4 feet around 8
am Tuesday June 30 and begin falling.
* At 14.0 feet... significant flooding occurs on DeKalb County Road 42
about 3 miles northeast of Newville. Considerable agricultural and
low land flooding occurs along the St. Joseph river to the
Cedarville Reservoir.
* This crest compares to a previous crest of 14.6 feet which occurred
on may 30 2011.


Lat... Lon 4126 8498 4140 8481 4139 8478 4123 8493